AUA2C LOWW-LOWI
Flight info
| Callsign | AUA2C |
|---|---|
| Flight time | 0h 54m |
| Altitude | 30000 |
| Route | SOVIL DCT SITNI DCT BAGSI DCT NANIT NANIT2A |
| Aircraft | A319/M-SDE3FGHIRWY/LB1 |
Departure
| Time | 2026-04-22 17:55 |
|---|---|
| Airport | Vienna International Airport (LOWW) |
Arrival
| Time | 2026-04-22 18:49 |
|---|---|
| Airport | Innsbruck Airport (LOWI) |
| Time | Latitude | Longitude | Altitude | Speed | Heading |
|---|---|---|---|---|---|
| 2026-04-22 17:19 | 48.11829 | 16.56987 | 609 ft | 0 kts | 206° |
| 2026-04-22 17:46 | 48.11839 | 16.56994 | 620 ft | 3 kts | 206° |
| 2026-04-22 17:46 | 48.11857 | 16.57008 | 621 ft | 3 kts | 206° |
| 2026-04-22 17:46 | 48.11875 | 16.57021 | 624 ft | 3 kts | 205° |
| 2026-04-22 17:47 | 48.11893 | 16.57034 | 623 ft | 3 kts | 201° |
| 2026-04-22 17:47 | 48.11912 | 16.57043 | 616 ft | 3 kts | 187° |
| 2026-04-22 17:47 | 48.11929 | 16.57043 | 619 ft | 3 kts | 143° |
| 2026-04-22 17:47 | 48.11935 | 16.57037 | 624 ft | 0 kts | 116° |
| 2026-04-22 17:50 | 48.11934 | 16.57038 | 624 ft | 1 kts | 116° |
| 2026-04-22 17:50 | 48.11910 | 16.57112 | 613 ft | 6 kts | 116° |
| 2026-04-22 17:50 | 48.11890 | 16.57173 | 609 ft | 7 kts | 116° |
| 2026-04-22 17:50 | 48.11863 | 16.57234 | 611 ft | 8 kts | 129° |
| 2026-04-22 17:51 | 48.11823 | 16.57316 | 620 ft | 12 kts | 123° |
| 2026-04-22 17:51 | 48.11751 | 16.57372 | 616 ft | 12 kts | 165° |
| 2026-04-22 17:51 | 48.11665 | 16.57406 | 616 ft | 13 kts | 165° |
| 2026-04-22 17:51 | 48.11575 | 16.57445 | 614 ft | 14 kts | 163° |
| 2026-04-22 17:52 | 48.11482 | 16.57453 | 609 ft | 14 kts | 203° |
| 2026-04-22 17:52 | 48.11392 | 16.57388 | 614 ft | 15 kts | 205° |
| 2026-04-22 17:52 | 48.11300 | 16.57323 | 609 ft | 12 kts | 205° |
| 2026-04-22 17:52 | 48.11220 | 16.57288 | 609 ft | 12 kts | 166° |
| 2026-04-22 17:53 | 48.11172 | 16.57390 | 609 ft | 13 kts | 116° |
| 2026-04-22 17:53 | 48.11135 | 16.57500 | 611 ft | 8 kts | 116° |
| 2026-04-22 17:53 | 48.11090 | 16.57532 | 614 ft | 8 kts | 192° |
| 2026-04-22 17:53 | 48.11035 | 16.57496 | 609 ft | 9 kts | 206° |
| 2026-04-22 17:54 | 48.10978 | 16.57446 | 618 ft | 10 kts | 215° |
| 2026-04-22 17:54 | 48.10988 | 16.57309 | 612 ft | 33 kts | 295° |
| 2026-04-22 17:54 | 48.11238 | 16.56540 | 613 ft | 128 kts | 295° |
| 2026-04-22 17:54 | 48.11705 | 16.55045 | 923 ft | 169 kts | 295° |
| 2026-04-22 17:55 | 48.11950 | 16.53365 | 2009 ft | 170 kts | 269° |
| 2026-04-22 17:55 | 48.11471 | 16.51756 | 2989 ft | 168 kts | 245° |
| 2026-04-22 17:55 | 48.10936 | 16.50155 | 3594 ft | 180 kts | 252° |
| 2026-04-22 17:55 | 48.10406 | 16.48328 | 4001 ft | 203 kts | 252° |
| 2026-04-22 17:56 | 48.09814 | 16.46282 | 4413 ft | 225 kts | 252° |
| 2026-04-22 17:56 | 48.08987 | 16.44150 | 4940 ft | 249 kts | 239° |
| 2026-04-22 17:56 | 48.07964 | 16.42003 | 5779 ft | 256 kts | 238° |
| 2026-04-22 17:56 | 48.06907 | 16.39841 | 6722 ft | 260 kts | 238° |
| 2026-04-22 17:57 | 48.05820 | 16.37647 | 7633 ft | 264 kts | 237° |
| 2026-04-22 17:57 | 48.04690 | 16.35349 | 8322 ft | 282 kts | 239° |
| 2026-04-22 17:57 | 48.03788 | 16.32725 | 9235 ft | 286 kts | 254° |
| 2026-04-22 17:57 | 48.03362 | 16.29831 | 10219 ft | 287 kts | 269° |
| 2026-04-22 17:58 | 48.03361 | 16.26797 | 10842 ft | 303 kts | 276° |
| 2026-04-22 17:58 | 48.03430 | 16.23527 | 11239 ft | 327 kts | 276° |
| 2026-04-22 17:58 | 48.03504 | 16.20059 | 11895 ft | 339 kts | 275° |
| 2026-04-22 17:58 | 48.03572 | 16.16499 | 12728 ft | 346 kts | 275° |
| 2026-04-22 17:59 | 48.03633 | 16.12868 | 13564 ft | 353 kts | 275° |
| 2026-04-22 17:59 | 48.03689 | 16.09173 | 14367 ft | 359 kts | 275° |
| 2026-04-22 17:59 | 48.03745 | 16.05419 | 15122 ft | 364 kts | 275° |
| 2026-04-22 17:59 | 48.03803 | 16.01612 | 15885 ft | 369 kts | 275° |
| 2026-04-22 18:00 | 48.03842 | 15.99069 | 16383 ft | 372 kts | 275° |
| 2026-04-22 18:00 | 48.03922 | 15.93856 | 17398 ft | 379 kts | 275° |
| 2026-04-22 18:00 | 48.03984 | 15.89898 | 18133 ft | 383 kts | 275° |
| 2026-04-22 18:00 | 48.04045 | 15.85891 | 18851 ft | 388 kts | 275° |
| 2026-04-22 18:01 | 48.04104 | 15.81841 | 19521 ft | 392 kts | 275° |
| 2026-04-22 18:01 | 48.04164 | 15.77747 | 20175 ft | 396 kts | 275° |
| 2026-04-22 18:01 | 48.04222 | 15.73607 | 20834 ft | 401 kts | 275° |
| 2026-04-22 18:01 | 48.04276 | 15.69421 | 21493 ft | 405 kts | 275° |
| 2026-04-22 18:02 | 48.04327 | 15.65191 | 22154 ft | 409 kts | 274° |
| 2026-04-22 18:02 | 48.04375 | 15.60915 | 22798 ft | 414 kts | 274° |
| 2026-04-22 18:02 | 48.04424 | 15.56594 | 23421 ft | 418 kts | 274° |
| 2026-04-22 18:02 | 48.04476 | 15.52230 | 23990 ft | 422 kts | 274° |
| 2026-04-22 18:03 | 48.04529 | 15.47822 | 24474 ft | 426 kts | 274° |
| 2026-04-22 18:03 | 48.04580 | 15.43369 | 24944 ft | 431 kts | 274° |
| 2026-04-22 18:03 | 48.04629 | 15.38880 | 25424 ft | 435 kts | 274° |
| 2026-04-22 18:03 | 48.04683 | 15.34351 | 25962 ft | 437 kts | 274° |
| 2026-04-22 18:04 | 48.04749 | 15.29809 | 26504 ft | 438 kts | 274° |
| 2026-04-22 18:04 | 48.04825 | 15.25239 | 26986 ft | 442 kts | 274° |
| 2026-04-22 18:04 | 48.04904 | 15.20637 | 27463 ft | 445 kts | 274° |
| 2026-04-22 18:04 | 48.04983 | 15.15995 | 27930 ft | 449 kts | 274° |
| 2026-04-22 18:05 | 48.05057 | 15.11306 | 28384 ft | 452 kts | 274° |
| 2026-04-22 18:05 | 48.05127 | 15.06589 | 28832 ft | 456 kts | 274° |
| 2026-04-22 18:05 | 48.05195 | 15.01846 | 29260 ft | 459 kts | 274° |
| 2026-04-22 18:05 | 48.05260 | 14.97062 | 29697 ft | 462 kts | 274° |
| 2026-04-22 18:06 | 48.05318 | 14.92245 | 30111 ft | 465 kts | 273° |
| 2026-04-22 18:06 | 48.05372 | 14.87407 | 30246 ft | 462 kts | 273° |
| 2026-04-22 18:06 | 48.05424 | 14.82650 | 30257 ft | 454 kts | 273° |
| 2026-04-22 18:07 | 48.05514 | 14.73255 | 30256 ft | 451 kts | 273° |
| 2026-04-22 18:07 | 48.05587 | 14.63886 | 30261 ft | 451 kts | 273° |
| 2026-04-22 18:08 | 48.05649 | 14.54548 | 30255 ft | 447 kts | 273° |
| 2026-04-22 18:08 | 48.05703 | 14.45280 | 30252 ft | 445 kts | 273° |
| 2026-04-22 18:09 | 48.05745 | 14.36028 | 30246 ft | 445 kts | 273° |
| 2026-04-22 18:09 | 48.04847 | 14.26933 | 30241 ft | 450 kts | 254° |
| 2026-04-22 18:10 | 48.02279 | 14.18385 | 30239 ft | 452 kts | 245° |
| 2026-04-22 18:10 | 47.99491 | 14.09974 | 30226 ft | 451 kts | 245° |
| 2026-04-22 18:11 | 47.96713 | 14.01576 | 30248 ft | 451 kts | 245° |
| 2026-04-22 18:11 | 47.93925 | 13.93202 | 30254 ft | 450 kts | 245° |
| 2026-04-22 18:12 | 47.91154 | 13.84940 | 30269 ft | 431 kts | 245° |
| 2026-04-22 18:12 | 47.89833 | 13.81009 | 30268 ft | 419 kts | 245° |
| 2026-04-22 18:12 | 47.88956 | 13.78404 | 30276 ft | 416 kts | 245° |
| 2026-04-22 18:12 | 47.87244 | 13.73323 | 30011 ft | 412 kts | 245° |
| 2026-04-22 18:13 | 47.85956 | 13.69499 | 29317 ft | 413 kts | 245° |
| 2026-04-22 18:13 | 47.84678 | 13.65711 | 29014 ft | 406 kts | 245° |
| 2026-04-22 18:13 | 47.83416 | 13.61974 | 28620 ft | 402 kts | 245° |
| 2026-04-22 18:13 | 47.82164 | 13.58276 | 28233 ft | 398 kts | 246° |
| 2026-04-22 18:14 | 47.80923 | 13.54612 | 27807 ft | 395 kts | 245° |
| 2026-04-22 18:14 | 47.79691 | 13.50982 | 27377 ft | 392 kts | 245° |
| 2026-04-22 18:14 | 47.78467 | 13.47377 | 26949 ft | 389 kts | 245° |
| 2026-04-22 18:14 | 47.77251 | 13.43800 | 26538 ft | 386 kts | 245° |
| 2026-04-22 18:15 | 47.76044 | 13.40254 | 26087 ft | 383 kts | 246° |
| 2026-04-22 18:15 | 47.74845 | 13.36731 | 25648 ft | 381 kts | 245° |
| 2026-04-22 18:15 | 47.73654 | 13.33235 | 25242 ft | 378 kts | 245° |
| 2026-04-22 18:15 | 47.72471 | 13.29770 | 24811 ft | 375 kts | 245° |
| 2026-04-22 18:16 | 47.71293 | 13.26334 | 24381 ft | 372 kts | 245° |
| 2026-04-22 18:16 | 47.70121 | 13.22926 | 23979 ft | 369 kts | 245° |
| 2026-04-22 18:16 | 47.68957 | 13.19551 | 23526 ft | 367 kts | 245° |
| 2026-04-22 18:16 | 47.67796 | 13.16187 | 23050 ft | 364 kts | 246° |
| 2026-04-22 18:17 | 47.66646 | 13.12862 | 22582 ft | 362 kts | 245° |
| 2026-04-22 18:17 | 47.65469 | 13.09570 | 22103 ft | 360 kts | 245° |
| 2026-04-22 18:17 | 47.64292 | 13.06299 | 21659 ft | 359 kts | 245° |
| 2026-04-22 18:17 | 47.63122 | 13.03044 | 21233 ft | 357 kts | 245° |
| 2026-04-22 18:18 | 47.61960 | 12.99810 | 20828 ft | 354 kts | 245° |
| 2026-04-22 18:18 | 47.60823 | 12.96638 | 20421 ft | 352 kts | 245° |
| 2026-04-22 18:18 | 47.59679 | 12.93442 | 20040 ft | 350 kts | 245° |
| 2026-04-22 18:18 | 47.58544 | 12.90265 | 19667 ft | 348 kts | 245° |
| 2026-04-22 18:19 | 47.57416 | 12.87106 | 19304 ft | 346 kts | 245° |
| 2026-04-22 18:19 | 47.56298 | 12.83973 | 18953 ft | 344 kts | 245° |
| 2026-04-22 18:19 | 47.55185 | 12.80850 | 18584 ft | 342 kts | 244° |
| 2026-04-22 18:19 | 47.54079 | 12.77743 | 18180 ft | 340 kts | 244° |
| 2026-04-22 18:20 | 47.52978 | 12.74652 | 17760 ft | 337 kts | 244° |
| 2026-04-22 18:20 | 47.51891 | 12.71590 | 17390 ft | 336 kts | 245° |
| 2026-04-22 18:20 | 47.50803 | 12.68537 | 16998 ft | 335 kts | 245° |
| 2026-04-22 18:20 | 47.49711 | 12.65495 | 16608 ft | 334 kts | 244° |
| 2026-04-22 18:21 | 47.48627 | 12.62472 | 16211 ft | 332 kts | 244° |
| 2026-04-22 18:21 | 47.47542 | 12.59464 | 15861 ft | 330 kts | 244° |
| 2026-04-22 18:21 | 47.46470 | 12.56473 | 15495 ft | 329 kts | 244° |
| 2026-04-22 18:21 | 47.45405 | 12.53489 | 15267 ft | 328 kts | 244° |
| 2026-04-22 18:22 | 47.44341 | 12.50505 | 15280 ft | 329 kts | 245° |
| 2026-04-22 18:22 | 47.43275 | 12.47514 | 15280 ft | 329 kts | 244° |
| 2026-04-22 18:22 | 47.42210 | 12.44524 | 15291 ft | 328 kts | 244° |
| 2026-04-22 18:22 | 47.41149 | 12.41537 | 15293 ft | 329 kts | 245° |
| 2026-04-22 18:23 | 47.40083 | 12.38547 | 15281 ft | 329 kts | 245° |
| 2026-04-22 18:23 | 47.39019 | 12.35560 | 15296 ft | 329 kts | 245° |
| 2026-04-22 18:23 | 47.37969 | 12.32612 | 15292 ft | 329 kts | 245° |
| 2026-04-22 18:24 | 47.35820 | 12.26600 | 15284 ft | 329 kts | 244° |
| 2026-04-22 18:24 | 47.34750 | 12.23624 | 15275 ft | 328 kts | 244° |
| 2026-04-22 18:24 | 47.32605 | 12.17690 | 15290 ft | 328 kts | 244° |
| 2026-04-22 18:25 | 47.31533 | 12.14715 | 15283 ft | 329 kts | 244° |
| 2026-04-22 18:25 | 47.30460 | 12.11740 | 15276 ft | 329 kts | 244° |
| 2026-04-22 18:25 | 47.29386 | 12.08766 | 15266 ft | 329 kts | 244° |
| 2026-04-22 18:26 | 47.27237 | 12.02821 | 15275 ft | 329 kts | 244° |
| 2026-04-22 18:26 | 47.26163 | 11.99848 | 15279 ft | 329 kts | 244° |
| 2026-04-22 18:26 | 47.25089 | 11.96874 | 15264 ft | 329 kts | 244° |
| 2026-04-22 18:26 | 47.24011 | 11.93905 | 15272 ft | 329 kts | 244° |
| 2026-04-22 18:27 | 47.22932 | 11.90936 | 15269 ft | 329 kts | 244° |
| 2026-04-22 18:27 | 47.21854 | 11.87966 | 15269 ft | 329 kts | 244° |
| 2026-04-22 18:27 | 47.20775 | 11.84996 | 15269 ft | 329 kts | 244° |
| 2026-04-22 18:27 | 47.19713 | 11.82068 | 15269 ft | 329 kts | 244° |
| 2026-04-22 18:28 | 47.18622 | 11.79068 | 15237 ft | 329 kts | 245° |
| 2026-04-22 18:28 | 47.17635 | 11.76092 | 15229 ft | 327 kts | 252° |
| 2026-04-22 18:28 | 47.16876 | 11.72932 | 15241 ft | 328 kts | 254° |
| 2026-04-22 18:28 | 47.16142 | 11.69766 | 15223 ft | 326 kts | 254° |
| 2026-04-22 18:29 | 47.15408 | 11.66614 | 15237 ft | 326 kts | 254° |
| 2026-04-22 18:29 | 47.14675 | 11.63458 | 15236 ft | 326 kts | 255° |
| 2026-04-22 18:29 | 47.13937 | 11.60308 | 15220 ft | 326 kts | 254° |
| 2026-04-22 18:29 | 47.13445 | 11.58187 | 15226 ft | 325 kts | 254° |
| 2026-04-22 18:30 | 47.12732 | 11.55053 | 15221 ft | 323 kts | 254° |
| 2026-04-22 18:30 | 47.11312 | 11.48785 | 15223 ft | 324 kts | 254° |
| 2026-04-22 18:30 | 47.10602 | 11.45653 | 15229 ft | 323 kts | 254° |
| 2026-04-22 18:31 | 47.09891 | 11.42524 | 15231 ft | 323 kts | 254° |
| 2026-04-22 18:31 | 47.09181 | 11.39393 | 15221 ft | 323 kts | 254° |
| 2026-04-22 18:31 | 47.08468 | 11.36258 | 15224 ft | 324 kts | 255° |
| 2026-04-22 18:31 | 47.07753 | 11.33127 | 15225 ft | 324 kts | 254° |
| 2026-04-22 18:32 | 47.07179 | 11.29999 | 15210 ft | 319 kts | 268° |
| 2026-04-22 18:32 | 47.07388 | 11.26822 | 15215 ft | 311 kts | 290° |
| 2026-04-22 18:32 | 47.08091 | 11.23825 | 15219 ft | 311 kts | 294° |
| 2026-04-22 18:32 | 47.08841 | 11.20851 | 15226 ft | 311 kts | 294° |
| 2026-04-22 18:33 | 47.09596 | 11.17879 | 15222 ft | 311 kts | 294° |
| 2026-04-22 18:33 | 47.10364 | 11.14869 | 15220 ft | 311 kts | 294° |
| 2026-04-22 18:33 | 47.11121 | 11.11947 | 15227 ft | 311 kts | 294° |
| 2026-04-22 18:33 | 47.11887 | 11.08975 | 15230 ft | 311 kts | 294° |
| 2026-04-22 18:34 | 47.12650 | 11.06006 | 15111 ft | 309 kts | 294° |
| 2026-04-22 18:34 | 47.13411 | 11.03061 | 14765 ft | 308 kts | 294° |
| 2026-04-22 18:34 | 47.14173 | 11.00126 | 14415 ft | 307 kts | 294° |
| 2026-04-22 18:34 | 47.14934 | 10.97191 | 14032 ft | 308 kts | 294° |
| 2026-04-22 18:35 | 47.15689 | 10.94261 | 13629 ft | 306 kts | 294° |
| 2026-04-22 18:35 | 47.16454 | 10.91360 | 13216 ft | 303 kts | 294° |
| 2026-04-22 18:35 | 47.17219 | 10.88482 | 13018 ft | 301 kts | 294° |
| 2026-04-22 18:35 | 47.17980 | 10.85608 | 13021 ft | 302 kts | 294° |
| 2026-04-22 18:36 | 47.18737 | 10.82731 | 13030 ft | 303 kts | 294° |
| 2026-04-22 18:36 | 47.19496 | 10.79842 | 13022 ft | 303 kts | 294° |
| 2026-04-22 18:36 | 47.20265 | 10.76948 | 13011 ft | 303 kts | 294° |
| 2026-04-22 18:36 | 47.21026 | 10.74127 | 12973 ft | 292 kts | 294° |
| 2026-04-22 18:37 | 47.21763 | 10.71395 | 12844 ft | 283 kts | 294° |
| 2026-04-22 18:37 | 47.22476 | 10.68745 | 12712 ft | 274 kts | 294° |
| 2026-04-22 18:37 | 47.23168 | 10.66174 | 12577 ft | 266 kts | 294° |
| 2026-04-22 18:37 | 47.23833 | 10.63687 | 12447 ft | 257 kts | 294° |
| 2026-04-22 18:38 | 47.24519 | 10.61321 | 12305 ft | 246 kts | 303° |
| 2026-04-22 18:38 | 47.25691 | 10.59638 | 12188 ft | 230 kts | 334° |
| 2026-04-22 18:38 | 47.27174 | 10.59058 | 12057 ft | 215 kts | 2° |
| 2026-04-22 18:39 | 47.29674 | 10.60812 | 11716 ft | 201 kts | 52° |
| 2026-04-22 18:39 | 47.30273 | 10.62650 | 11549 ft | 201 kts | 77° |
| 2026-04-22 18:39 | 47.30277 | 10.64715 | 11534 ft | 205 kts | 101° |
| 2026-04-22 18:39 | 47.29657 | 10.66619 | 11537 ft | 210 kts | 125° |
| 2026-04-22 18:40 | 47.28817 | 10.68375 | 11539 ft | 209 kts | 114° |
| 2026-04-22 18:40 | 47.28347 | 10.70381 | 11539 ft | 207 kts | 97° |
| 2026-04-22 18:40 | 47.28326 | 10.72472 | 11575 ft | 204 kts | 80° |
| 2026-04-22 18:40 | 47.28723 | 10.74458 | 11541 ft | 202 kts | 66° |
| 2026-04-22 18:41 | 47.29169 | 10.76409 | 11531 ft | 201 kts | 74° |
| 2026-04-22 18:41 | 47.29419 | 10.78452 | 11332 ft | 203 kts | 83° |
| 2026-04-22 18:41 | 47.29507 | 10.80508 | 11029 ft | 201 kts | 85° |
| 2026-04-22 18:41 | 47.29585 | 10.82555 | 10715 ft | 200 kts | 85° |
| 2026-04-22 18:42 | 47.29664 | 10.84593 | 10389 ft | 199 kts | 84° |
| 2026-04-22 18:42 | 47.29744 | 10.86622 | 10039 ft | 198 kts | 85° |
| 2026-04-22 18:42 | 47.29821 | 10.88642 | 9662 ft | 197 kts | 85° |
| 2026-04-22 18:42 | 47.29898 | 10.90650 | 9286 ft | 196 kts | 85° |
| 2026-04-22 18:43 | 47.29975 | 10.92643 | 8952 ft | 194 kts | 85° |
| 2026-04-22 18:43 | 47.30051 | 10.94623 | 8660 ft | 194 kts | 85° |
| 2026-04-22 18:43 | 47.30126 | 10.96598 | 8332 ft | 193 kts | 85° |
| 2026-04-22 18:43 | 47.30198 | 10.98564 | 7998 ft | 191 kts | 85° |
| 2026-04-22 18:44 | 47.30268 | 11.00515 | 7664 ft | 190 kts | 85° |
| 2026-04-22 18:44 | 47.30337 | 11.02443 | 7369 ft | 188 kts | 86° |
| 2026-04-22 18:44 | 47.30407 | 11.04371 | 7098 ft | 188 kts | 86° |
| 2026-04-22 18:44 | 47.30478 | 11.06306 | 6845 ft | 189 kts | 86° |
| 2026-04-22 18:45 | 47.30541 | 11.08232 | 6568 ft | 188 kts | 89° |
| 2026-04-22 18:45 | 47.30221 | 11.10087 | 6291 ft | 188 kts | 111° |
| 2026-04-22 18:45 | 47.29669 | 11.11807 | 6002 ft | 188 kts | 115° |
| 2026-04-22 18:45 | 47.29099 | 11.13548 | 5687 ft | 188 kts | 113° |
| 2026-04-22 18:46 | 47.28539 | 11.15282 | 5354 ft | 184 kts | 114° |
| 2026-04-22 18:46 | 47.28014 | 11.16946 | 5045 ft | 173 kts | 112° |
| 2026-04-22 18:46 | 47.27516 | 11.18475 | 4705 ft | 158 kts | 113° |
| 2026-04-22 18:46 | 47.27054 | 11.19882 | 4380 ft | 149 kts | 112° |
| 2026-04-22 18:47 | 47.26602 | 11.21217 | 4059 ft | 143 kts | 114° |
| 2026-04-22 18:47 | 47.26167 | 11.22532 | 3714 ft | 143 kts | 114° |
| 2026-04-22 18:47 | 47.25746 | 11.23853 | 3356 ft | 141 kts | 113° |
| 2026-04-22 18:47 | 47.25475 | 11.25207 | 3000 ft | 137 kts | 100° |
| 2026-04-22 18:48 | 47.25401 | 11.26587 | 2781 ft | 134 kts | 89° |
| 2026-04-22 18:48 | 47.25437 | 11.27943 | 2600 ft | 133 kts | 85° |
| 2026-04-22 18:48 | 47.25499 | 11.29291 | 2434 ft | 131 kts | 85° |
| 2026-04-22 18:48 | 47.25617 | 11.30596 | 2247 ft | 128 kts | 82° |
| 2026-04-22 18:49 | 47.25756 | 11.31897 | 2092 ft | 128 kts | 82° |
| 2026-04-22 18:49 | 47.25895 | 11.33193 | 1930 ft | 128 kts | 81° |
| 2026-04-22 18:49 | 47.26020 | 11.34353 | 1907 ft | 95 kts | 81° |
| 2026-04-22 18:49 | 47.26084 | 11.34950 | 1898 ft | 35 kts | 81° |
| 2026-04-22 18:50 | 47.26105 | 11.35190 | 1907 ft | 15 kts | 85° |
| 2026-04-22 18:50 | 47.26042 | 11.35265 | 1904 ft | 10 kts | 169° |
| 2026-04-22 18:50 | 47.25988 | 11.35279 | 1907 ft | 7 kts | 170° |
| 2026-04-22 18:50 | 47.25939 | 11.35290 | 1905 ft | 8 kts | 171° |
| 2026-04-22 18:51 | 47.25898 | 11.35247 | 1903 ft | 10 kts | 255° |
| 2026-04-22 18:51 | 47.25884 | 11.35115 | 1907 ft | 16 kts | 261° |
| 2026-04-22 18:51 | 47.25865 | 11.34991 | 1896 ft | 7 kts | 226° |
| 2026-04-22 18:51 | 47.25816 | 11.34992 | 1907 ft | 2 kts | 171° |
| 2026-04-22 18:52 | 47.25816 | 11.34993 | 1907 ft | 0 kts | 171° |